Saltar al contingut principal

Dades de l'estació automàtica Port de Barcelona - Bocana Sud

Selector estació i data
?
?

Resum diari

21:30 TU
Dades diàries de l'estació meteorològica
Ratxa màxima del vent (10 m) 27.7 km/h - 310º 20:32 TU

El tram horari està expressat en Temps Universal (TU). Cal sumar una hora en horari d'hivern i dues en horari d'estiu per passar a l'hora oficial.

Port de Barcelona - Bocana Sud

Metadades estació meteorològica
Municipi El Prat de Llobregat
Comarca Baix Llobregat
Altitud 3 m
Data alta 08.04.2015
Estat actual Operativa
Dades de període
Període
TU
VVM (10 m)
km/h
DVM (10 m)
graus
VVX (10 m)
km/h
00:00 - 00:30 11.5 5 14.4
00:30 - 01:00 11.2 1 14.4
01:00 - 01:30 10.8 3 12.6
01:30 - 02:00 7.9 21 13.3
02:00 - 02:30 6.8 31 9.4
02:30 - 03:00 5.4 42 9.0
03:00 - 03:30 5.0 304 9.7
03:30 - 04:00 0.7 9 4.0
04:00 - 04:30 2.5 48 4.3
04:30 - 05:00 1.8 42 6.8
05:00 - 05:30 6.1 267 8.3
05:30 - 06:00 3.6 299 7.9
06:00 - 06:30 2.2 300 4.0
06:30 - 07:00 3.2 293 6.5
07:00 - 07:30 0.4 298 2.2
07:30 - 08:00 3.6 145 7.2
08:00 - 08:30 7.9 150 11.2
08:30 - 09:00 10.4 159 13.7
09:00 - 09:30 13.7 163 18.0
09:30 - 10:00 20.9 172 25.9
10:00 - 10:30 18.4 182 24.8
10:30 - 11:00 17.6 173 22.0
11:00 - 11:30 18.0 169 23.8
11:30 - 12:00 16.6 179 21.2
12:00 - 12:30 16.6 200 20.5
12:30 - 13:00 15.1 200 18.7
13:00 - 13:30 16.9 212 21.6
13:30 - 14:00 12.2 211 15.8
14:00 - 14:30 13.0 204 17.3
14:30 - 15:00 12.6 211 17.6
15:00 - 15:30 11.9 257 19.4
15:30 - 16:00 7.2 216 10.4
16:00 - 16:30 6.1 190 12.2
16:30 - 17:00 2.5 191 4.7
17:00 - 17:30 5.4 200 8.6
17:30 - 18:00 7.2 234 10.8
18:00 - 18:30 9.7 208 14.8
18:30 - 19:00 12.6 220 16.2
19:00 - 19:30 14.0 237 23.4
19:30 - 20:00 20.2 226 27.4
20:00 - 20:30 14.0 273 24.8
20:30 - 21:00 17.6 305 27.7
21:00 - 21:30 7.6 238 17.3
21:30 - 22:00 11.2 256 16.2
22:00 - 22:30 (s/d) (s/d) (s/d)

Les dades en taronja només han passat un control de qualitat automàtic. Resta pendent la seva validació definitiva.